sensor_id;sensor_type;location;lat;lon;timestamp;P1;durP1;ratioP1;P2;durP2;ratioP2
16478;SDS011;8350;52.316;10.530;2024-02-21T00:02:02;5.43;;;4.15;;
16478;SDS011;8350;52.316;10.530;2024-02-21T00:04:31;8.60;;;3.33;;
16478;SDS011;8350;52.316;10.530;2024-02-21T00:07:01;4.95;;;3.20;;
16478;SDS011;8350;52.316;10.530;2024-02-21T00:09:28;6.00;;;3.22;;
16478;SDS011;8350;52.316;10.530;2024-02-21T00:11:57;4.93;;;2.83;;
16478;SDS011;8350;52.316;10.530;2024-02-21T00:14:26;5.10;;;3.45;;
16478;SDS011;8350;52.316;10.530;2024-02-21T00:16:53;5.88;;;3.60;;
16478;SDS011;8350;52.316;10.530;2024-02-21T00:19:21;6.72;;;3.33;;
16478;SDS011;8350;52.316;10.530;2024-02-21T00:21:52;5.13;;;3.38;;
16478;SDS011;8350;52.316;10.530;2024-02-21T00:24:19;9.98;;;3.78;;
16478;SDS011;8350;52.316;10.530;2024-02-21T00:26:46;7.95;;;3.50;;
16478;SDS011;8350;52.316;10.530;2024-02-21T00:29:13;5.13;;;3.83;;
16478;SDS011;8350;52.316;10.530;2024-02-21T00:31:40;7.57;;;3.80;;
16478;SDS011;8350;52.316;10.530;2024-02-21T00:34:07;7.72;;;4.47;;
16478;SDS011;8350;52.316;10.530;2024-02-21T00:36:35;6.63;;;3.95;;
16478;SDS011;8350;52.316;10.530;2024-02-21T00:39:02;5.53;;;3.20;;
16478;SDS011;8350;52.316;10.530;2024-02-21T00:41:31;3.67;;;2.90;;
16478;SDS011;8350;52.316;10.530;2024-02-21T00:43:58;6.47;;;3.75;;
16478;SDS011;8350;52.316;10.530;2024-02-21T00:46:27;5.35;;;3.72;;
16478;SDS011;8350;52.316;10.530;2024-02-21T00:48:55;4.20;;;3.13;;
16478;SDS011;8350;52.316;10.530;2024-02-21T00:51:22;4.30;;;3.33;;
16478;SDS011;8350;52.316;10.530;2024-02-21T00:53:50;6.10;;;4.18;;
16478;SDS011;8350;52.316;10.530;2024-02-21T00:56:17;6.53;;;5.00;;
16478;SDS011;8350;52.316;10.530;2024-02-21T00:58:44;6.18;;;4.03;;
16478;SDS011;8350;52.316;10.530;2024-02-21T01:01:11;5.18;;;3.70;;
16478;SDS011;8350;52.316;10.530;2024-02-21T01:03:40;4.95;;;3.60;;
16478;SDS011;8350;52.316;10.530;2024-02-21T01:06:11;9.32;;;4.10;;
16478;SDS011;8350;52.316;10.530;2024-02-21T01:08:38;5.22;;;3.97;;
16478;SDS011;8350;52.316;10.530;2024-02-21T01:11:07;7.03;;;4.00;;
16478;SDS011;8350;52.316;10.530;2024-02-21T01:13:34;6.60;;;3.38;;
16478;SDS011;8350;52.316;10.530;2024-02-21T01:16:01;7.10;;;4.03;;
16478;SDS011;8350;52.316;10.530;2024-02-21T01:18:28;7.50;;;3.60;;
16478;SDS011;8350;52.316;10.530;2024-02-21T01:20:55;8.05;;;3.92;;
16478;SDS011;8350;52.316;10.530;2024-02-21T01:23:21;7.97;;;4.55;;
16478;SDS011;8350;52.316;10.530;2024-02-21T01:25:48;5.28;;;3.60;;
16478;SDS011;8350;52.316;10.530;2024-02-21T01:28:17;9.90;;;4.82;;
16478;SDS011;8350;52.316;10.530;2024-02-21T01:30:47;6.22;;;3.67;;
16478;SDS011;8350;52.316;10.530;2024-02-21T01:33:17;5.88;;;4.68;;
16478;SDS011;8350;52.316;10.530;2024-02-21T01:35:46;8.27;;;4.65;;
16478;SDS011;8350;52.316;10.530;2024-02-21T01:38:16;7.20;;;4.55;;
16478;SDS011;8350;52.316;10.530;2024-02-21T01:40:43;9.05;;;4.65;;
16478;SDS011;8350;52.316;10.530;2024-02-21T01:43:18;6.97;;;4.55;;
16478;SDS011;8350;52.316;10.530;2024-02-21T01:45:46;5.90;;;4.32;;
16478;SDS011;8350;52.316;10.530;2024-02-21T01:48:16;8.32;;;3.88;;
16478;SDS011;8350;52.316;10.530;2024-02-21T01:50:44;7.28;;;5.03;;
16478;SDS011;8350;52.316;10.530;2024-02-21T01:53:12;8.50;;;4.97;;
16478;SDS011;8350;52.316;10.530;2024-02-21T01:55:43;7.60;;;4.32;;
16478;SDS011;8350;52.316;10.530;2024-02-21T01:58:11;8.18;;;4.82;;
16478;SDS011;8350;52.316;10.530;2024-02-21T02:00:41;9.00;;;5.57;;
16478;SDS011;8350;52.316;10.530;2024-02-21T02:03:09;7.40;;;4.72;;
16478;SDS011;8350;52.316;10.530;2024-02-21T02:05:41;7.60;;;4.95;;
16478;SDS011;8350;52.316;10.530;2024-02-21T02:08:11;6.55;;;5.28;;
16478;SDS011;8350;52.316;10.530;2024-02-21T02:10:51;8.13;;;5.68;;
16478;SDS011;8350;52.316;10.530;2024-02-21T02:13:18;9.32;;;4.82;;
16478;SDS011;8350;52.316;10.530;2024-02-21T02:15:48;11.18;;;5.22;;
16478;SDS011;8350;52.316;10.530;2024-02-21T02:18:17;7.15;;;4.15;;
16478;SDS011;8350;52.316;10.530;2024-02-21T02:20:47;11.52;;;6.00;;
16478;SDS011;8350;52.316;10.530;2024-02-21T02:23:21;6.90;;;5.25;;
16478;SDS011;8350;52.316;10.530;2024-02-21T02:25:49;8.55;;;4.32;;
16478;SDS011;8350;52.316;10.530;2024-02-21T02:28:17;4.88;;;3.85;;
16478;SDS011;8350;52.316;10.530;2024-02-21T02:30:45;7.05;;;4.95;;
16478;SDS011;8350;52.316;10.530;2024-02-21T02:33:12;9.85;;;5.05;;
16478;SDS011;8350;52.316;10.530;2024-02-21T02:35:39;8.50;;;5.28;;
16478;SDS011;8350;52.316;10.530;2024-02-21T02:38:06;6.30;;;4.50;;
16478;SDS011;8350;52.316;10.530;2024-02-21T02:40:35;6.68;;;4.78;;
16478;SDS011;8350;52.316;10.530;2024-02-21T02:43:01;8.52;;;5.22;;
16478;SDS011;8350;52.316;10.530;2024-02-21T02:45:28;8.02;;;4.15;;
16478;SDS011;8350;52.316;10.530;2024-02-21T02:47:56;8.13;;;5.20;;
16478;SDS011;8350;52.316;10.530;2024-02-21T02:50:23;8.82;;;6.03;;
16478;SDS011;8350;52.316;10.530;2024-02-21T02:52:51;6.47;;;5.32;;
16478;SDS011;8350;52.316;10.530;2024-02-21T02:55:18;7.25;;;4.13;;
16478;SDS011;8350;52.316;10.530;2024-02-21T02:57:46;9.70;;;3.90;;
16478;SDS011;8350;52.316;10.530;2024-02-21T03:00:13;8.70;;;4.32;;
16478;SDS011;8350;52.316;10.530;2024-02-21T03:02:42;7.50;;;4.85;;
16478;SDS011;8350;52.316;10.530;2024-02-21T03:05:13;9.43;;;5.82;;
16478;SDS011;8350;52.316;10.530;2024-02-21T03:07:41;9.27;;;5.32;;
16478;SDS011;8350;52.316;10.530;2024-02-21T03:10:09;6.30;;;4.13;;
16478;SDS011;8350;52.316;10.530;2024-02-21T03:12:36;9.48;;;5.43;;
16478;SDS011;8350;52.316;10.530;2024-02-21T03:15:08;6.45;;;4.47;;
16478;SDS011;8350;52.316;10.530;2024-02-21T03:17:35;10.23;;;5.03;;
16478;SDS011;8350;52.316;10.530;2024-02-21T03:20:03;8.77;;;5.20;;
16478;SDS011;8350;52.316;10.530;2024-02-21T03:22:33;8.18;;;6.22;;
16478;SDS011;8350;52.316;10.530;2024-02-21T03:25:00;6.03;;;4.03;;
16478;SDS011;8350;52.316;10.530;2024-02-21T03:27:27;5.78;;;4.93;;
16478;SDS011;8350;52.316;10.530;2024-02-21T03:29:54;9.77;;;5.63;;
16478;SDS011;8350;52.316;10.530;2024-02-21T03:32:22;9.13;;;5.78;;
16478;SDS011;8350;52.316;10.530;2024-02-21T03:34:49;11.32;;;5.55;;
16478;SDS011;8350;52.316;10.530;2024-02-21T03:37:16;10.70;;;5.70;;
16478;SDS011;8350;52.316;10.530;2024-02-21T03:39:43;8.77;;;5.00;;
16478;SDS011;8350;52.316;10.530;2024-02-21T03:42:10;8.95;;;5.80;;
16478;SDS011;8350;52.316;10.530;2024-02-21T03:44:37;13.68;;;5.97;;
16478;SDS011;8350;52.316;10.530;2024-02-21T03:47:04;8.15;;;6.50;;
16478;SDS011;8350;52.316;10.530;2024-02-21T03:49:32;7.60;;;4.82;;
16478;SDS011;8350;52.316;10.530;2024-02-21T03:52:00;9.93;;;5.40;;
16478;SDS011;8350;52.316;10.530;2024-02-21T03:54:27;9.07;;;6.25;;
16478;SDS011;8350;52.316;10.530;2024-02-21T03:56:54;9.40;;;4.80;;
16478;SDS011;8350;52.316;10.530;2024-02-21T03:59:22;6.53;;;5.57;;
16478;SDS011;8350;52.316;10.530;2024-02-21T04:01:51;7.25;;;5.18;;
16478;SDS011;8350;52.316;10.530;2024-02-21T04:04:18;8.30;;;5.63;;
16478;SDS011;8350;52.316;10.530;2024-02-21T04:06:49;5.93;;;4.60;;
16478;SDS011;8350;52.316;10.530;2024-02-21T04:09:16;8.32;;;4.72;;
16478;SDS011;8350;52.316;10.530;2024-02-21T04:11:43;5.45;;;3.80;;
16478;SDS011;8350;52.316;10.530;2024-02-21T04:14:10;6.93;;;4.88;;
16478;SDS011;8350;52.316;10.530;2024-02-21T04:16:38;9.15;;;4.97;;
16478;SDS011;8350;52.316;10.530;2024-02-21T04:19:05;8.68;;;5.68;;
16478;SDS011;8350;52.316;10.530;2024-02-21T04:21:32;8.02;;;5.50;;
16478;SDS011;8350;52.316;10.530;2024-02-21T04:24:00;10.52;;;6.88;;
16478;SDS011;8350;52.316;10.530;2024-02-21T04:26:46;8.85;;;5.13;;
16478;SDS011;8350;52.316;10.530;2024-02-21T04:29:13;8.80;;;4.30;;
16478;SDS011;8350;52.316;10.530;2024-02-21T04:31:41;8.48;;;6.22;;
16478;SDS011;8350;52.316;10.530;2024-02-21T04:34:08;11.45;;;5.40;;
16478;SDS011;8350;52.316;10.530;2024-02-21T04:36:35;8.02;;;4.35;;
16478;SDS011;8350;52.316;10.530;2024-02-21T04:39:02;6.88;;;4.82;;
16478;SDS011;8350;52.316;10.530;2024-02-21T04:41:29;5.97;;;4.45;;
16478;SDS011;8350;52.316;10.530;2024-02-21T04:43:57;11.80;;;5.72;;
16478;SDS011;8350;52.316;10.530;2024-02-21T04:46:24;7.10;;;4.85;;
16478;SDS011;8350;52.316;10.530;2024-02-21T04:48:51;10.07;;;4.80;;
16478;SDS011;8350;52.316;10.530;2024-02-21T04:51:18;7.60;;;5.03;;
16478;SDS011;8350;52.316;10.530;2024-02-21T04:53:45;6.85;;;4.78;;
16478;SDS011;8350;52.316;10.530;2024-02-21T04:56:14;8.18;;;4.43;;
16478;SDS011;8350;52.316;10.530;2024-02-21T04:58:41;7.25;;;4.65;;
16478;SDS011;8350;52.316;10.530;2024-02-21T05:01:09;8.60;;;5.38;;
16478;SDS011;8350;52.316;10.530;2024-02-21T05:03:36;8.30;;;3.95;;
16478;SDS011;8350;52.316;10.530;2024-02-21T05:06:07;5.43;;;4.43;;
16478;SDS011;8350;52.316;10.530;2024-02-21T05:08:34;6.10;;;5.03;;
16478;SDS011;8350;52.316;10.530;2024-02-21T05:11:02;7.40;;;5.45;;
16478;SDS011;8350;52.316;10.530;2024-02-21T05:13:29;7.50;;;5.05;;
16478;SDS011;8350;52.316;10.530;2024-02-21T05:16:01;8.35;;;5.85;;
16478;SDS011;8350;52.316;10.530;2024-02-21T05:18:29;9.10;;;5.63;;
16478;SDS011;8350;52.316;10.530;2024-02-21T05:20:59;9.07;;;5.63;;
16478;SDS011;8350;52.316;10.530;2024-02-21T05:23:28;4.95;;;3.97;;
16478;SDS011;8350;52.316;10.530;2024-02-21T05:25:56;6.32;;;4.45;;
16478;SDS011;8350;52.316;10.530;2024-02-21T05:28:23;8.77;;;4.57;;
16478;SDS011;8350;52.316;10.530;2024-02-21T05:30:50;6.00;;;4.65;;
16478;SDS011;8350;52.316;10.530;2024-02-21T05:33:17;6.47;;;4.38;;
16478;SDS011;8350;52.316;10.530;2024-02-21T05:35:47;7.40;;;5.50;;
16478;SDS011;8350;52.316;10.530;2024-02-21T05:38:18;5.85;;;5.07;;
16478;SDS011;8350;52.316;10.530;2024-02-21T05:40:45;7.90;;;5.32;;
16478;SDS011;8350;52.316;10.530;2024-02-21T05:43:12;6.07;;;4.35;;
16478;SDS011;8350;52.316;10.530;2024-02-21T05:45:41;9.85;;;5.07;;
16478;SDS011;8350;52.316;10.530;2024-02-21T05:48:08;6.05;;;4.50;;
16478;SDS011;8350;52.316;10.530;2024-02-21T05:50:35;7.40;;;4.90;;
16478;SDS011;8350;52.316;10.530;2024-02-21T05:53:03;7.70;;;4.68;;
16478;SDS011;8350;52.316;10.530;2024-02-21T05:55:30;7.32;;;5.05;;
16478;SDS011;8350;52.316;10.530;2024-02-21T05:57:57;5.60;;;4.50;;
16478;SDS011;8350;52.316;10.530;2024-02-21T06:00:24;10.32;;;6.10;;
16478;SDS011;8350;52.316;10.530;2024-02-21T06:02:51;7.10;;;4.68;;
16478;SDS011;8350;52.316;10.530;2024-02-21T06:05:18;7.88;;;5.03;;
16478;SDS011;8350;52.316;10.530;2024-02-21T06:07:44;9.35;;;5.43;;
16478;SDS011;8350;52.316;10.530;2024-02-21T06:10:13;7.75;;;5.05;;
16478;SDS011;8350;52.316;10.530;2024-02-21T06:12:40;7.35;;;4.60;;
16478;SDS011;8350;52.316;10.530;2024-02-21T06:15:07;6.22;;;4.75;;
16478;SDS011;8350;52.316;10.530;2024-02-21T06:17:34;7.97;;;4.95;;
16478;SDS011;8350;52.316;10.530;2024-02-21T06:20:01;7.70;;;5.35;;
16478;SDS011;8350;52.316;10.530;2024-02-21T06:22:29;7.53;;;4.57;;
16478;SDS011;8350;52.316;10.530;2024-02-21T06:24:59;7.05;;;5.13;;
16478;SDS011;8350;52.316;10.530;2024-02-21T06:27:28;6.00;;;4.97;;
16478;SDS011;8350;52.316;10.530;2024-02-21T06:29:55;6.60;;;4.97;;
16478;SDS011;8350;52.316;10.530;2024-02-21T06:32:22;7.78;;;4.82;;
16478;SDS011;8350;52.316;10.530;2024-02-21T06:34:49;7.30;;;5.25;;
16478;SDS011;8350;52.316;10.530;2024-02-21T06:37:17;9.32;;;6.05;;
16478;SDS011;8350;52.316;10.530;2024-02-21T06:39:44;8.70;;;5.43;;
16478;SDS011;8350;52.316;10.530;2024-02-21T06:42:11;9.05;;;5.18;;
16478;SDS011;8350;52.316;10.530;2024-02-21T06:44:43;6.63;;;5.03;;
16478;SDS011;8350;52.316;10.530;2024-02-21T06:47:11;6.10;;;4.45;;
16478;SDS011;8350;52.316;10.530;2024-02-21T06:49:38;6.15;;;5.55;;
16478;SDS011;8350;52.316;10.530;2024-02-21T06:52:06;5.90;;;4.35;;
16478;SDS011;8350;52.316;10.530;2024-02-21T06:54:34;8.77;;;6.22;;
16478;SDS011;8350;52.316;10.530;2024-02-21T06:57:01;6.72;;;4.90;;
16478;SDS011;8350;52.316;10.530;2024-02-21T06:59:27;10.02;;;5.43;;
16478;SDS011;8350;52.316;10.530;2024-02-21T07:01:56;4.95;;;4.07;;
16478;SDS011;8350;52.316;10.530;2024-02-21T07:04:23;8.15;;;4.25;;
16478;SDS011;8350;52.316;10.530;2024-02-21T07:06:49;8.00;;;4.97;;
16478;SDS011;8350;52.316;10.530;2024-02-21T07:09:16;4.97;;;4.25;;
16478;SDS011;8350;52.316;10.530;2024-02-21T07:11:43;5.13;;;3.85;;
16478;SDS011;8350;52.316;10.530;2024-02-21T07:14:10;7.63;;;4.72;;
16478;SDS011;8350;52.316;10.530;2024-02-21T07:16:37;5.63;;;3.63;;
16478;SDS011;8350;52.316;10.530;2024-02-21T07:19:05;5.65;;;4.63;;
16478;SDS011;8350;52.316;10.530;2024-02-21T07:21:32;7.72;;;5.15;;
16478;SDS011;8350;52.316;10.530;2024-02-21T07:23:59;7.35;;;5.28;;
16478;SDS011;8350;52.316;10.530;2024-02-21T07:26:26;8.90;;;4.68;;
16478;SDS011;8350;52.316;10.530;2024-02-21T07:28:53;6.35;;;4.53;;
16478;SDS011;8350;52.316;10.530;2024-02-21T07:31:20;7.72;;;5.18;;
16478;SDS011;8350;52.316;10.530;2024-02-21T07:33:47;9.13;;;5.10;;
16478;SDS011;8350;52.316;10.530;2024-02-21T07:36:28;5.57;;;5.07;;
16478;SDS011;8350;52.316;10.530;2024-02-21T07:38:56;6.45;;;5.05;;
16478;SDS011;8350;52.316;10.530;2024-02-21T07:41:23;6.22;;;4.15;;
16478;SDS011;8350;52.316;10.530;2024-02-21T07:43:49;5.80;;;4.18;;
16478;SDS011;8350;52.316;10.530;2024-02-21T07:46:22;5.45;;;4.38;;
16478;SDS011;8350;52.316;10.530;2024-02-21T07:48:50;6.45;;;5.03;;
16478;SDS011;8350;52.316;10.530;2024-02-21T07:51:18;4.80;;;4.00;;
16478;SDS011;8350;52.316;10.530;2024-02-21T07:53:45;7.70;;;4.88;;
16478;SDS011;8350;52.316;10.530;2024-02-21T07:56:14;4.85;;;4.30;;
16478;SDS011;8350;52.316;10.530;2024-02-21T07:58:41;4.85;;;3.78;;
16478;SDS011;8350;52.316;10.530;2024-02-21T08:01:08;7.55;;;4.68;;
16478;SDS011;8350;52.316;10.530;2024-02-21T08:03:35;6.57;;;4.20;;
16478;SDS011;8350;52.316;10.530;2024-02-21T08:06:02;6.22;;;5.13;;
16478;SDS011;8350;52.316;10.530;2024-02-21T08:08:31;4.25;;;3.72;;
16478;SDS011;8350;52.316;10.530;2024-02-21T08:10:59;6.25;;;4.45;;
16478;SDS011;8350;52.316;10.530;2024-02-21T08:13:25;7.05;;;4.20;;
16478;SDS011;8350;52.316;10.530;2024-02-21T08:15:53;4.10;;;3.70;;
16478;SDS011;8350;52.316;10.530;2024-02-21T08:18:20;5.57;;;3.85;;
16478;SDS011;8350;52.316;10.530;2024-02-21T08:20:47;6.18;;;3.70;;
16478;SDS011;8350;52.316;10.530;2024-02-21T08:23:18;6.38;;;4.32;;
16478;SDS011;8350;52.316;10.530;2024-02-21T08:25:47;6.00;;;4.55;;
16478;SDS011;8350;52.316;10.530;2024-02-21T08:28:13;5.10;;;4.30;;
16478;SDS011;8350;52.316;10.530;2024-02-21T08:30:44;7.10;;;4.32;;
16478;SDS011;8350;52.316;10.530;2024-02-21T08:33:13;5.85;;;3.67;;
16478;SDS011;8350;52.316;10.530;2024-02-21T08:35:41;5.38;;;4.60;;
16478;SDS011;8350;52.316;10.530;2024-02-21T08:38:08;6.72;;;4.15;;
16478;SDS011;8350;52.316;10.530;2024-02-21T08:40:35;3.92;;;3.22;;
16478;SDS011;8350;52.316;10.530;2024-02-21T08:43:04;7.15;;;3.60;;
16478;SDS011;8350;52.316;10.530;2024-02-21T08:45:31;8.73;;;3.95;;
16478;SDS011;8350;52.316;10.530;2024-02-21T08:47:58;5.95;;;4.22;;
16478;SDS011;8350;52.316;10.530;2024-02-21T08:50:25;6.63;;;3.60;;
16478;SDS011;8350;52.316;10.530;2024-02-21T08:52:52;5.35;;;4.15;;
16478;SDS011;8350;52.316;10.530;2024-02-21T08:55:21;5.43;;;3.78;;
16478;SDS011;8350;52.316;10.530;2024-02-21T08:57:49;7.03;;;3.92;;
16478;SDS011;8350;52.316;10.530;2024-02-21T09:00:17;4.80;;;3.70;;
16478;SDS011;8350;52.316;10.530;2024-02-21T09:02:49;6.28;;;4.15;;
16478;SDS011;8350;52.316;10.530;2024-02-21T09:05:16;7.85;;;4.47;;
16478;SDS011;8350;52.316;10.530;2024-02-21T09:07:43;6.05;;;3.50;;
16478;SDS011;8350;52.316;10.530;2024-02-21T09:10:10;5.93;;;4.28;;
16478;SDS011;8350;52.316;10.530;2024-02-21T09:12:37;6.38;;;3.67;;
16478;SDS011;8350;52.316;10.530;2024-02-21T09:15:04;5.35;;;3.85;;
16478;SDS011;8350;52.316;10.530;2024-02-21T09:17:35;7.18;;;3.95;;
16478;SDS011;8350;52.316;10.530;2024-02-21T09:20:05;4.13;;;3.03;;
16478;SDS011;8350;52.316;10.530;2024-02-21T09:22:35;6.50;;;3.53;;
16478;SDS011;8350;52.316;10.530;2024-02-21T09:25:03;3.38;;;3.00;;
16478;SDS011;8350;52.316;10.530;2024-02-21T09:27:30;4.75;;;3.60;;
16478;SDS011;8350;52.316;10.530;2024-02-21T09:29:59;4.90;;;3.95;;
16478;SDS011;8350;52.316;10.530;2024-02-21T09:32:36;6.35;;;3.45;;
16478;SDS011;8350;52.316;10.530;2024-02-21T09:35:05;7.60;;;3.72;;
16478;SDS011;8350;52.316;10.530;2024-02-21T09:37:32;6.30;;;2.75;;
16478;SDS011;8350;52.316;10.530;2024-02-21T09:39:59;3.90;;;2.85;;
16478;SDS011;8350;52.316;10.530;2024-02-21T09:42:27;3.25;;;2.80;;
16478;SDS011;8350;52.316;10.530;2024-02-21T09:45:01;4.32;;;2.85;;
16478;SDS011;8350;52.316;10.530;2024-02-21T09:47:34;3.72;;;2.70;;
16478;SDS011;8350;52.316;10.530;2024-02-21T09:50:12;3.50;;;2.67;;
16478;SDS011;8350;52.316;10.530;2024-02-21T09:52:41;3.80;;;2.50;;
16478;SDS011;8350;52.316;10.530;2024-02-21T09:55:09;2.90;;;2.00;;
16478;SDS011;8350;52.316;10.530;2024-02-21T09:57:43;2.78;;;2.50;;
16478;SDS011;8350;52.316;10.530;2024-02-21T10:00:11;4.32;;;1.98;;
16478;SDS011;8350;52.316;10.530;2024-02-21T10:02:51;1.83;;;1.70;;
16478;SDS011;8350;52.316;10.530;2024-02-21T10:05:18;3.50;;;2.47;;
16478;SDS011;8350;52.316;10.530;2024-02-21T10:07:45;2.45;;;1.75;;
16478;SDS011;8350;52.316;10.530;2024-02-21T10:10:12;3.35;;;2.30;;
16478;SDS011;8350;52.316;10.530;2024-02-21T10:12:49;1.75;;;1.60;;
16478;SDS011;8350;52.316;10.530;2024-02-21T10:15:19;1.63;;;1.52;;
16478;SDS011;8350;52.316;10.530;2024-02-21T10:17:47;2.50;;;2.25;;
16478;SDS011;8350;52.316;10.530;2024-02-21T10:20:20;2.83;;;2.50;;
16478;SDS011;8350;52.316;10.530;2024-02-21T10:22:46;1.85;;;1.73;;
16478;SDS011;8350;52.316;10.530;2024-02-21T10:25:23;2.67;;;2.03;;
16478;SDS011;8350;52.316;10.530;2024-02-21T10:27:50;2.42;;;2.17;;
16478;SDS011;8350;52.316;10.530;2024-02-21T10:30:19;2.65;;;1.55;;
16478;SDS011;8350;52.316;10.530;2024-02-21T10:32:48;1.88;;;1.63;;
16478;SDS011;8350;52.316;10.530;2024-02-21T10:35:24;3.13;;;1.75;;
16478;SDS011;8350;52.316;10.530;2024-02-21T10:37:54;3.03;;;1.92;;
16478;SDS011;8350;52.316;10.530;2024-02-21T10:40:31;5.28;;;2.13;;
16478;SDS011;8350;52.316;10.530;2024-02-21T10:42:58;4.55;;;2.65;;
16478;SDS011;8350;52.316;10.530;2024-02-21T10:45:29;1.98;;;1.77;;
16478;SDS011;8350;52.316;10.530;2024-02-21T10:48:02;4.15;;;2.00;;
16478;SDS011;8350;52.316;10.530;2024-02-21T10:50:41;4.05;;;1.92;;
16478;SDS011;8350;52.316;10.530;2024-02-21T10:53:24;1.92;;;1.73;;
16478;SDS011;8350;52.316;10.530;2024-02-21T10:56:04;2.35;;;1.80;;
16478;SDS011;8350;52.316;10.530;2024-02-21T10:58:42;2.53;;;2.30;;
16478;SDS011;8350;52.316;10.530;2024-02-21T11:01:11;2.97;;;2.08;;
16478;SDS011;8350;52.316;10.530;2024-02-21T11:03:45;4.15;;;1.70;;
16478;SDS011;8350;52.316;10.530;2024-02-21T11:06:15;2.92;;;1.80;;
16478;SDS011;8350;52.316;10.530;2024-02-21T11:08:45;5.03;;;1.52;;
16478;SDS011;8350;52.316;10.530;2024-02-21T11:11:14;1.95;;;1.55;;
16478;SDS011;8350;52.316;10.530;2024-02-21T11:13:50;2.35;;;1.80;;
16478;SDS011;8350;52.316;10.530;2024-02-21T11:16:21;1.42;;;1.15;;
16478;SDS011;8350;52.316;10.530;2024-02-21T11:18:49;1.95;;;1.20;;
16478;SDS011;8350;52.316;10.530;2024-02-21T11:21:17;1.58;;;1.40;;
16478;SDS011;8350;52.316;10.530;2024-02-21T11:23:44;1.48;;;1.38;;
16478;SDS011;8350;52.316;10.530;2024-02-21T11:26:24;6.35;;;1.90;;
16478;SDS011;8350;52.316;10.530;2024-02-21T11:28:56;2.22;;;1.45;;
16478;SDS011;8350;52.316;10.530;2024-02-21T11:31:24;1.80;;;1.40;;
16478;SDS011;8350;52.316;10.530;2024-02-21T11:33:53;1.70;;;1.33;;
16478;SDS011;8350;52.316;10.530;2024-02-21T11:36:25;3.17;;;1.52;;
16478;SDS011;8350;52.316;10.530;2024-02-21T11:38:53;2.15;;;1.90;;
16478;SDS011;8350;52.316;10.530;2024-02-21T11:41:20;5.35;;;1.55;;
16478;SDS011;8350;52.316;10.530;2024-02-21T11:43:48;1.95;;;1.55;;
16478;SDS011;8350;52.316;10.530;2024-02-21T11:46:18;4.03;;;1.80;;
16478;SDS011;8350;52.316;10.530;2024-02-21T11:48:45;2.92;;;1.83;;
16478;SDS011;8350;52.316;10.530;2024-02-21T11:51:21;1.85;;;1.45;;
16478;SDS011;8350;52.316;10.530;2024-02-21T11:53:52;3.53;;;1.38;;
16478;SDS011;8350;52.316;10.530;2024-02-21T11:56:19;1.77;;;1.67;;
16478;SDS011;8350;52.316;10.530;2024-02-21T11:58:47;3.03;;;1.60;;
16478;SDS011;8350;52.316;10.530;2024-02-21T12:01:14;2.33;;;1.58;;
16478;SDS011;8350;52.316;10.530;2024-02-21T12:03:42;2.22;;;1.63;;
16478;SDS011;8350;52.316;10.530;2024-02-21T12:06:19;2.22;;;1.58;;
16478;SDS011;8350;52.316;10.530;2024-02-21T12:08:47;1.65;;;1.27;;
16478;SDS011;8350;52.316;10.530;2024-02-21T12:11:30;2.72;;;1.83;;
16478;SDS011;8350;52.316;10.530;2024-02-21T12:14:03;2.45;;;1.40;;
16478;SDS011;8350;52.316;10.530;2024-02-21T12:16:30;1.67;;;1.35;;
16478;SDS011;8350;52.316;10.530;2024-02-21T12:18:58;2.70;;;1.35;;
16478;SDS011;8350;52.316;10.530;2024-02-21T12:21:32;3.28;;;2.20;;
16478;SDS011;8350;52.316;10.530;2024-02-21T12:24:11;1.70;;;1.55;;
16478;SDS011;8350;52.316;10.530;2024-02-21T12:26:40;2.63;;;1.48;;
16478;SDS011;8350;52.316;10.530;2024-02-21T12:29:07;2.20;;;1.67;;
16478;SDS011;8350;52.316;10.530;2024-02-21T12:31:35;1.80;;;1.65;;
16478;SDS011;8350;52.316;10.530;2024-02-21T12:34:02;2.35;;;1.85;;
16478;SDS011;8350;52.316;10.530;2024-02-21T12:36:29;3.50;;;2.78;;
16478;SDS011;8350;52.316;10.530;2024-02-21T12:38:56;2.30;;;1.80;;
16478;SDS011;8350;52.316;10.530;2024-02-21T12:41:23;2.38;;;1.45;;
16478;SDS011;8350;52.316;10.530;2024-02-21T12:43:53;2.67;;;1.98;;
16478;SDS011;8350;52.316;10.530;2024-02-21T12:46:21;1.88;;;1.50;;
16478;SDS011;8350;52.316;10.530;2024-02-21T12:48:48;1.65;;;1.40;;
16478;SDS011;8350;52.316;10.530;2024-02-21T12:51:19;3.22;;;2.03;;
16478;SDS011;8350;52.316;10.530;2024-02-21T12:53:59;1.95;;;1.73;;
16478;SDS011;8350;52.316;10.530;2024-02-21T12:56:28;2.10;;;1.77;;
16478;SDS011;8350;52.316;10.530;2024-02-21T12:58:57;3.95;;;1.98;;
16478;SDS011;8350;52.316;10.530;2024-02-21T13:01:27;3.45;;;2.40;;
16478;SDS011;8350;52.316;10.530;2024-02-21T13:03:54;2.92;;;2.65;;
16478;SDS011;8350;52.316;10.530;2024-02-21T13:06:22;3.72;;;1.90;;
16478;SDS011;8350;52.316;10.530;2024-02-21T13:08:50;3.17;;;2.25;;
16478;SDS011;8350;52.316;10.530;2024-02-21T13:11:17;3.33;;;2.60;;
16478;SDS011;8350;52.316;10.530;2024-02-21T13:13:46;4.82;;;2.70;;
16478;SDS011;8350;52.316;10.530;2024-02-21T13:16:17;5.50;;;3.33;;
16478;SDS011;8350;52.316;10.530;2024-02-21T13:18:44;3.53;;;2.90;;
16478;SDS011;8350;52.316;10.530;2024-02-21T13:21:13;3.03;;;2.58;;
16478;SDS011;8350;52.316;10.530;2024-02-21T13:23:40;4.13;;;2.42;;
16478;SDS011;8350;52.316;10.530;2024-02-21T13:26:09;4.20;;;2.65;;
16478;SDS011;8350;52.316;10.530;2024-02-21T13:28:37;3.15;;;2.53;;
16478;SDS011;8350;52.316;10.530;2024-02-21T13:31:04;4.03;;;2.78;;
16478;SDS011;8350;52.316;10.530;2024-02-21T13:33:32;6.55;;;3.17;;
16478;SDS011;8350;52.316;10.530;2024-02-21T13:36:01;2.42;;;1.83;;
16478;SDS011;8350;52.316;10.530;2024-02-21T13:38:28;2.65;;;1.90;;
16478;SDS011;8350;52.316;10.530;2024-02-21T13:40:55;4.28;;;2.03;;
16478;SDS011;8350;52.316;10.530;2024-02-21T13:43:25;4.43;;;2.70;;
16478;SDS011;8350;52.316;10.530;2024-02-21T13:45:58;3.28;;;2.20;;
16478;SDS011;8350;52.316;10.530;2024-02-21T13:48:30;3.53;;;2.53;;
16478;SDS011;8350;52.316;10.530;2024-02-21T13:50:59;4.47;;;2.40;;
16478;SDS011;8350;52.316;10.530;2024-02-21T13:53:28;3.97;;;2.17;;
16478;SDS011;8350;52.316;10.530;2024-02-21T13:55:55;4.80;;;2.50;;
16478;SDS011;8350;52.316;10.530;2024-02-21T13:58:21;3.30;;;2.38;;
16478;SDS011;8350;52.316;10.530;2024-02-21T14:00:50;4.20;;;2.20;;
16478;SDS011;8350;52.316;10.530;2024-02-21T14:03:17;3.70;;;1.90;;
16478;SDS011;8350;52.316;10.530;2024-02-21T14:05:46;2.72;;;1.83;;
16478;SDS011;8350;52.316;10.530;2024-02-21T14:08:14;5.07;;;1.77;;
16478;SDS011;8350;52.316;10.530;2024-02-21T14:10:41;2.22;;;1.85;;
16478;SDS011;8350;52.316;10.530;2024-02-21T14:13:08;2.85;;;1.73;;
16478;SDS011;8350;52.316;10.530;2024-02-21T14:15:36;2.78;;;1.17;;
16478;SDS011;8350;52.316;10.530;2024-02-21T14:18:09;3.83;;;1.38;;
16478;SDS011;8350;52.316;10.530;2024-02-21T14:20:37;2.50;;;1.27;;
16478;SDS011;8350;52.316;10.530;2024-02-21T14:23:05;1.17;;;1.08;;
16478;SDS011;8350;52.316;10.530;2024-02-21T14:25:34;1.83;;;1.50;;
16478;SDS011;8350;52.316;10.530;2024-02-21T14:28:03;1.65;;;1.13;;
16478;SDS011;8350;52.316;10.530;2024-02-21T14:30:30;2.22;;;1.30;;
16478;SDS011;8350;52.316;10.530;2024-02-21T14:32:57;2.33;;;1.27;;
16478;SDS011;8350;52.316;10.530;2024-02-21T14:35:24;2.92;;;1.70;;
16478;SDS011;8350;52.316;10.530;2024-02-21T14:37:51;1.63;;;1.17;;
16478;SDS011;8350;52.316;10.530;2024-02-21T14:40:20;1.92;;;1.20;;
16478;SDS011;8350;52.316;10.530;2024-02-21T14:42:49;1.58;;;1.20;;
16478;SDS011;8350;52.316;10.530;2024-02-21T14:45:19;1.77;;;1.38;;
16478;SDS011;8350;52.316;10.530;2024-02-21T14:47:48;1.00;;;0.75;;
16478;SDS011;8350;52.316;10.530;2024-02-21T14:50:14;2.22;;;1.42;;
16478;SDS011;8350;52.316;10.530;2024-02-21T14:52:44;1.13;;;1.02;;
16478;SDS011;8350;52.316;10.530;2024-02-21T14:55:14;1.98;;;1.75;;
16478;SDS011;8350;52.316;10.530;2024-02-21T14:57:41;1.75;;;1.45;;